Observation data for Seminole on 05/18/2018      Previous  Date  Next       Current Mesonet Observations  Soil Data  Daily Summary Page  Observations in Plain Language
KSM1 180500Z 17008KT 24/06 A2985 RMK A01 T02420060  RH  032%=      5-min Rain = 0
KSM1 180505Z 17008KT 24/06 A2985 RMK A01 T02400060  RH  032%=      5-min Rain = 0
KSM1 180510Z 17007KT 24/06 A2985 RMK A01 T02370060  RH  033%=      5-min Rain = 0
KSM1 180515Z 17007KT 23/06 A2985 RMK A01 T02340060  RH  033%=      5-min Rain = 0
KSM1 180520Z 16006KT 23/06 A2985 RMK A01 T02290061  RH  035%=      5-min Rain = 0
KSM1 180525Z 15005KT 22/06 A2985 RMK A01 T02240061  RH  036%=      5-min Rain = 0
KSM1 180530Z 13005KT 22/07 A2985 RMK A01 T02160068  RH  039%=      5-min Rain = 0
KSM1 180535Z 11007KT 21/07 A2985 RMK A01 T02090068  RH  041%=      5-min Rain = 0
KSM1 180540Z 08009KT 20/06 A2985 RMK A01 T02020064  RH  041%=      5-min Rain = 0
KSM1 180545Z 08010KT 21/06 A2985 RMK A01 T02070062  RH  040%=      5-min Rain = 0
KSM1 180550Z 08009KT 21/06 A2985 RMK A01 T02090064  RH  040%=      5-min Rain = 0
KSM1 180555Z 09008KT 21/07 A2985 RMK A01 T02090065  RH  040%=      5-min Rain = 0
KSM1 180600Z 09008KT 21/07 A2985 RMK A01 T02080066  RH  041%=      5-min Rain = 0
KSM1 180605Z 09008KT 21/07 A2985 RMK A01 T02050066  RH  041%=      5-min Rain = 0
KSM1 180610Z 09008KT 20/07 A2985 RMK A01 T02030066  RH  042%=      5-min Rain = 0
KSM1 180615Z 10008KT 20/07 A2984 RMK A01 T02020066  RH  042%=      5-min Rain = 0
KSM1 180620Z 10008KT 20/07 A2984 RMK A01 T02040067  RH  042%=      5-min Rain = 0
KSM1 180625Z 10008KT 21/07 A2984 RMK A01 T02070068  RH  042%=      5-min Rain = 0
KSM1 180630Z 10009KT 21/07 A2985 RMK A01 T02050067  RH  042%=      5-min Rain = 0
KSM1 180635Z 10010KT 21/07 A2985 RMK A01 T02060065  RH  041%=      5-min Rain = 0
KSM1 180640Z 10009KT 21/06 A2985 RMK A01 T02090063  RH  040%=      5-min Rain = 0
KSM1 180645Z 10008KT 21/06 A2985 RMK A01 T02090064  RH  040%=      5-min Rain = 0
KSM1 180650Z 10009KT 21/06 A2985 RMK A01 T02060063  RH  040%=      5-min Rain = 0
KSM1 180655Z 10008KT 20/06 A2984 RMK A01 T02020064  RH  042%=      5-min Rain = 0
KSM1 180700Z 10008KT 20/07 A2984 RMK A01 T01980067  RH  044%=      5-min Rain = 0
KSM1 180705Z 09009KT 20/07 A2984 RMK A01 T01960073  RH  046%=      5-min Rain = 0
KSM1 180710Z 10009KT 20/09 A2984 RMK A01 T01960085  RH  050%=      5-min Rain = 0
KSM1 180715Z 10010KT 20/10 A2984 RMK A01 T01950098  RH  055%=      5-min Rain = 0
KSM1 180720Z 10009KT 20/11 A2984 RMK A01 T01950106  RH  058%=      5-min Rain = 0
KSM1 180725Z 09008KT 19/11 A2984 RMK A01 T01930110  RH  061%=      5-min Rain = 0
KSM1 180730Z 09010KT 19/12 A2984 RMK A01 T01920117  RH  064%=      5-min Rain = 0
KSM1 180735Z 09010KT 19/12 A2984 RMK A01 T01920122  RH  066%=      5-min Rain = 0
KSM1 180740Z 09010KT 19/12 A2984 RMK A01 T01920124  RH  067%=      5-min Rain = 0
KSM1 180745Z 09010KT 19/13 A2984 RMK A01 T01920127  RH  069%=      5-min Rain = 0
KSM1 180750Z 09009KT 19/13 A2984 RMK A01 T01900127  RH  069%=      5-min Rain = 0
KSM1 180755Z 09010KT 19/13 A2984 RMK A01 T01890128  RH  070%=      5-min Rain = 0
KSM1 180800Z 09009KT 19/13 A2984 RMK A01 T01880128  RH  071%=      5-min Rain = 0
KSM1 180805Z 09009KT 19/13 A2984 RMK A01 T01870128  RH  071%=      5-min Rain = 0
KSM1 180810Z 09009KT 19/13 A2984 RMK A01 T01860128  RH  072%=      5-min Rain = 0
KSM1 180815Z 09008KT 19/13 A2984 RMK A01 T01850128  RH  073%=      5-min Rain = 0
KSM1 180820Z 09009KT 18/13 A2984 RMK A01 T01840129  RH  073%=      5-min Rain = 0
KSM1 180825Z 09009KT 18/13 A2983 RMK A01 T01830129  RH  073%=      5-min Rain = 0
KSM1 180830Z 09009KT 18/13 A2983 RMK A01 T01820129  RH  074%=      5-min Rain = 0
KSM1 180835Z 09008KT 18/13 A2983 RMK A01 T01820129  RH  074%=      5-min Rain = 0
KSM1 180840Z 10008KT 18/13 A2983 RMK A01 T01810130  RH  075%=      5-min Rain = 0
KSM1 180845Z 09009KT 18/13 A2983 RMK A01 T01800129  RH  075%=      5-min Rain = 0
KSM1 180850Z 09008KT 18/13 A2983 RMK A01 T01790129  RH  075%=      5-min Rain = 0
KSM1 180855Z 09008KT 18/13 A2983 RMK A01 T01780129  RH  076%=      5-min Rain = 0
KSM1 180900Z 10008KT 18/13 A2983 RMK A01 T01780129  RH  076%=      5-min Rain = 0
KSM1 180905Z 10008KT 18/13 A2983 RMK A01 T01790129  RH  076%=      5-min Rain = 0
KSM1 180910Z 10008KT 18/13 A2983 RMK A01 T01790129  RH  076%=      5-min Rain = 0
KSM1 180915Z 10008KT 18/13 A2983 RMK A01 T01790129  RH  075%=      5-min Rain = 0
KSM1 180920Z 11008KT 18/13 A2983 RMK A01 T01800129  RH  075%=      5-min Rain = 0
KSM1 180925Z 11008KT 18/13 A2983 RMK A01 T01790129  RH  076%=      5-min Rain = 0
KSM1 180930Z 11008KT 18/13 A2983 RMK A01 T01790130  RH  076%=      5-min Rain = 0
KSM1 180935Z 11008KT 18/13 A2983 RMK A01 T01780131  RH  077%=      5-min Rain = 0
KSM1 180940Z 11008KT 18/13 A2983 RMK A01 T01780131  RH  077%=      5-min Rain = 0
KSM1 180945Z 10009KT 18/13 A2982 RMK A01 T01780131  RH  077%=      5-min Rain = 0
KSM1 180950Z 11009KT 18/13 A2982 RMK A01 T01780131  RH  077%=      5-min Rain = 0
KSM1 180955Z 11009KT 18/13 A2982 RMK A01 T01770132  RH  078%=      5-min Rain = 0
KSM1 181000Z 11008KT 18/13 A2982 RMK A01 T01760132  RH  079%=      5-min Rain = 0
KSM1 181005Z 11008KT 17/13 A2982 RMK A01 T01740132  RH  079%=      5-min Rain = 0
KSM1 181010Z 11008KT 17/13 A2982 RMK A01 T01730131  RH  079%=      5-min Rain = 0
KSM1 181015Z 12007KT 17/13 A2982 RMK A01 T01720131  RH  080%=      5-min Rain = 0
KSM1 181020Z 12007KT 17/13 A2982 RMK A01 T01700131  RH  081%=      5-min Rain = 0
KSM1 181025Z 11007KT 17/13 A2982 RMK A01 T01690131  RH  081%=      5-min Rain = 0
KSM1 181030Z 10009KT 17/13 A2981 RMK A01 T01690131  RH  081%=      5-min Rain = 0
KSM1 181035Z 10010KT 17/13 A2981 RMK A01 T01680130  RH  081%=      5-min Rain = 0
KSM1 181040Z 10009KT 17/13 A2981 RMK A01 T01670130  RH  082%=      5-min Rain = 0
KSM1 181045Z 10010KT 17/13 A2981 RMK A01 T01670130  RH  082%=      5-min Rain = 0
KSM1 181050Z 10009KT 17/13 A2981 RMK A01 T01670129  RH  082%=      5-min Rain = 0
KSM1 181055Z 11009KT 17/13 A2981 RMK A01 T01680130  RH  081%=      5-min Rain = 0
KSM1 181100Z 11010KT 17/13 A2981 RMK A01 T01690130  RH  081%=      5-min Rain = 0
KSM1 181105Z 10009KT 17/13 A2981 RMK A01 T01700130  RH  080%=      5-min Rain = 0
KSM1 181110Z 11008KT 17/13 A2981 RMK A01 T01690129  RH  080%=      5-min Rain = 0
KSM1 181115Z 10009KT 17/13 A2981 RMK A01 T01680129  RH  081%=      5-min Rain = 0
KSM1 181120Z 10009KT 17/13 A2981 RMK A01 T01670128  RH  081%=      5-min Rain = 0
KSM1 181125Z 10008KT 17/13 A2981 RMK A01 T01650128  RH  082%=      5-min Rain = 0
KSM1 181130Z 11008KT 17/13 A2981 RMK A01 T01650128  RH  082%=      5-min Rain = 0
KSM1 181135Z 10008KT 17/13 A2981 RMK A01 T01660128  RH  081%=      5-min Rain = 0
KSM1 181140Z 10008KT 17/13 A2981 RMK A01 T01680127  RH  080%=      5-min Rain = 0
KSM1 181145Z 10008KT 17/13 A2981 RMK A01 T01660127  RH  081%=      5-min Rain = 0
KSM1 181150Z 10007KT 16/13 A2981 RMK A01 T01640126  RH  082%=      5-min Rain = 0
KSM1 181155Z 11007KT 17/13 A2981 RMK A01 T01650126  RH  081%=      5-min Rain = 0
KSM1 181200Z 11008KT 17/13 A2981 RMK A01 T01660126  RH  080%=      5-min Rain = 0
KSM1 181205Z 10009KT 17/13 A2981 RMK A01 T01680126  RH  079%=      5-min Rain = 0
KSM1 181210Z 10009KT 17/13 A2981 RMK A01 T01680125  RH  078%=      5-min Rain = 0
KSM1 181215Z 11008KT 17/13 A298 RMK A01 T01680125  RH  079%=      5-min Rain = 0
KSM1 181220Z 12007KT 17/13 A298 RMK A01 T01700125  RH  078%=      5-min Rain = 0
KSM1 181225Z 13008KT 17/13 A298 RMK A01 T01710125  RH  077%=      5-min Rain = 0
KSM1 181230Z 12009KT 18/12 A298 RMK A01 T01750124  RH  075%=      5-min Rain = 0
KSM1 181235Z 12008KT 18/12 A298 RMK A01 T01760124  RH  074%=      5-min Rain = 0
KSM1 181240Z 12008KT 18/12 A298 RMK A01 T01780123  RH  073%=      5-min Rain = 0
KSM1 181245Z 12009KT 18/12 A298 RMK A01 T01810122  RH  071%=      5-min Rain = 0
KSM1 181250Z 13008KT 18/12 A298 RMK A01 T01840122  RH  070%=      5-min Rain = 0
KSM1 181255Z 13010G15KT 19/12 A298 RMK A01 T01890119  RH  066%=      5-min Rain = 0
KSM1 181300Z 14011KT 19/12 A298 RMK A01 T01940118  RH  064%=      5-min Rain = 0
KSM1 181305Z 15011G16KT 20/12 A298 RMK A01 T01970116  RH  062%=      5-min Rain = 0
KSM1 181310Z 14010KT 20/12 A298 RMK A01 T02000116  RH  060%=      5-min Rain = 0
KSM1 181315Z 14010KT 20/12 A298 RMK A01 T02040115  RH  059%=      5-min Rain = 0
KSM1 181320Z 14011KT 21/11 A298 RMK A01 T02090113  RH  056%=      5-min Rain = 0
KSM1 181325Z 14011KT 21/11 A298 RMK A01 T02120113  RH  055%=      5-min Rain = 0
KSM1 181330Z 14010KT 22/11 A298 RMK A01 T02150113  RH  054%=      5-min Rain = 0
KSM1 181335Z 14010KT 22/11 A298 RMK A01 T02190111  RH  052%=      5-min Rain = 0
KSM1 181340Z 15010KT 22/11 A298 RMK A01 T02230110  RH  050%=      5-min Rain = 0
KSM1 181345Z 15011KT 23/11 A298 RMK A01 T02260107  RH  049%=      5-min Rain = 0
KSM1 181350Z 16011KT 23/11 A298 RMK A01 T02310106  RH  047%=      5-min Rain = 0
KSM1 181355Z 16012KT 23/11 A298 RMK A01 T02330106  RH  046%=      5-min Rain = 0
KSM1 181400Z 16014G19KT 24/11 A298 RMK A01 T02360105  RH  045%=      5-min Rain = 0
KSM1 181405Z 16014KT 24/10 A298 RMK A01 T02370104  RH  045%=      5-min Rain = 0
KSM1 181410Z 17015G20KT 24/10 A298 RMK A01 T02390104  RH  044%=      5-min Rain = 0
KSM1 181415Z 17017G22KT 24/10 A298 RMK A01 T02390103  RH  044%=      5-min Rain = 0
KSM1 181420Z 18014KT 24/10 A2981 RMK A01 T02420104  RH  043%=      5-min Rain = 0
KSM1 181425Z 17014KT 25/10 A2981 RMK A01 T02450104  RH  042%=      5-min Rain = 0
KSM1 181430Z 17014KT 25/10 A2981 RMK A01 T02470104  RH  042%=      5-min Rain = 0
KSM1 181435Z 17016G21KT 25/10 A2981 RMK A01 T02490102  RH  041%=      5-min Rain = 0
KSM1 181440Z 18015KT 25/10 A2981 RMK A01 T02520102  RH  040%=      5-min Rain = 0
KSM1 181445Z 18014G19KT 25/10 A2981 RMK A01 T02540102  RH  040%=      5-min Rain = 0
KSM1 181450Z 18014G19KT 26/10 A2981 RMK A01 T02590100  RH  038%=      5-min Rain = 0
KSM1 181455Z 18017KT 26/10 A2981 RMK A01 T02620098  RH  037%=      5-min Rain = 0
KSM1 181500Z 18015G20KT 26/10 A2981 RMK A01 T02640098  RH  036%=      5-min Rain = 0
KSM1 181505Z 19014G19KT 27/10 A2981 RMK A01 T02670098  RH  036%=      5-min Rain = 0
KSM1 181510Z 20015KT 27/10 A2981 RMK A01 T02690098  RH  035%=      5-min Rain = 0
KSM1 181515Z 20012G17KT 27/10 A2981 RMK A01 T02680098  RH  035%=      5-min Rain = 0
KSM1 181520Z 19013G18KT 27/10 A2981 RMK A01 T02710097  RH  035%=      5-min Rain = 0
KSM1 181525Z 19014G20KT 27/10 A2981 RMK A01 T02740096  RH  034%=      5-min Rain = 0
KSM1 181530Z 19014KT 28/10 A2981 RMK A01 T02750096  RH  033%=      5-min Rain = 0
KSM1 181535Z 18014KT 28/10 A2981 RMK A01 T02800097  RH  033%=      5-min Rain = 0
KSM1 181540Z 18013G18KT 28/10 A2981 RMK A01 T02820097  RH  032%=      5-min Rain = 0
KSM1 181545Z 18014KT 28/10 A2981 RMK A01 T02810097  RH  032%=      5-min Rain = 0
KSM1 181550Z 19013KT 28/10 A2981 RMK A01 T02770096  RH  033%=      5-min Rain = 0
KSM1 181555Z 19014G19KT 28/10 A298 RMK A01 T02820096  RH  032%=      5-min Rain = 0
KSM1 181600Z 18013G18KT 29/10 A298 RMK A01 T02870096  RH  031%=      5-min Rain = 0
KSM1 181605Z 19014KT 29/10 A298 RMK A01 T02850096  RH  032%=      5-min Rain = 0
KSM1 181610Z 20014KT 29/10 A298 RMK A01 T02890096  RH  031%=      5-min Rain = 0
KSM1 181615Z 19013KT 29/10 A298 RMK A01 T02920095  RH  030%=      5-min Rain = 0
KSM1 181620Z 19015G20KT 30/09 A298 RMK A01 T02950094  RH  029%=      5-min Rain = 0
KSM1 181625Z 18015KT 30/09 A298 RMK A01 T02960093  RH  029%=      5-min Rain = 0
KSM1 181630Z 19015KT 30/09 A298 RMK A01 T02970090  RH  028%=      5-min Rain = 0
KSM1 181635Z 21012G18KT 30/08 A298 RMK A01 T02990081  RH  026%=      5-min Rain = 0
KSM1 181640Z 19013G19KT 31/08 A298 RMK A01 T03070079  RH  025%=      5-min Rain = 0
KSM1 181645Z 21012KT 31/08 A298 RMK A01 T03090076  RH  024%=      5-min Rain = 0
KSM1 181650Z 19012KT 31/08 A298 RMK A01 T03100075  RH  024%=      5-min Rain = 0
KSM1 181655Z 20013KT 31/07 A298 RMK A01 T03100074  RH  024%=      5-min Rain = 0
KSM1 181700Z 19014KT 31/07 A298 RMK A01 T03120065  RH  022%=      5-min Rain = 0
KSM1 181705Z 18012G17KT 31/06 A298 RMK A01 T03130062  RH  021%=      5-min Rain = 0
KSM1 181710Z 20010G16KT 31/06 A298 RMK A01 T03120056  RH  020%=      5-min Rain = 0
KSM1 181715Z 21009G15KT 31/06 A298 RMK A01 T03110055  RH  020%=      5-min Rain = 0
KSM1 181720Z 18014G19KT 32/06 A2979 RMK A01 T03160057  RH  020%=      5-min Rain = 0
KSM1 181725Z 19009G15KT 32/06 A2979 RMK A01 T03170057  RH  020%=      5-min Rain = 0
KSM1 181730Z 19014KT 32/05 A2979 RMK A01 T03170049  RH  019%=      5-min Rain = 0
KSM1 181735Z 20012G18KT 32/05 A2979 RMK A01 T03190048  RH  019%=      5-min Rain = 0
KSM1 181740Z 20010G19KT 32/04 A2978 RMK A01 T03210042  RH  018%=      5-min Rain = 0
KSM1 181745Z 21010G15KT 33/03 A2979 RMK A01 T03260031  RH  016%=      5-min Rain = 0
KSM1 181750Z 22007KT 33/04 A2978 RMK A01 T03280038  RH  016%=      5-min Rain = 0
KSM1 181755Z 23010G15KT 33/03 A2978 RMK A01 T03270031  RH  016%=      5-min Rain = 0
KSM1 181800Z 23008KT 33/03 A2978 RMK A01 T03260028  RH  015%=      5-min Rain = 0
KSM1 181805Z 23009G14KT 32/03 A2977 RMK A01 T03240025  RH  015%=      5-min Rain = 0
KSM1 181810Z 24008G14KT 33/02 A2977 RMK A01 T03260020  RH  015%=      5-min Rain = 0
KSM1 181815Z 24010KT 33/02 A2977 RMK A01 T03260018  RH  014%=      5-min Rain = 0
KSM1 181820Z 22008G14KT 33/01 A2977 RMK A01 T03260014  RH  014%=      5-min Rain = 0
KSM1 181825Z 22008G13KT 33/01 A2976 RMK A01 T03300010  RH  013%=      5-min Rain = 0
KSM1 181830Z 19007KT 33/01 A2976 RMK A01 T03330006  RH  013%=      5-min Rain = 0
KSM1 181835Z 20005KT 33/00 A2976 RMK A01 T03340004  RH  012%=      5-min Rain = 0
KSM1 181840Z 20008G15KT 34/01 A2976 RMK A01 T03350008  RH  013%=      5-min Rain = 0
KSM1 181845Z 21007G13KT 34/01 A2976 RMK A01 T03350011  RH  013%=      5-min Rain = 0
KSM1 181850Z 23007G12KT 34/M00 A2976 RMK A01 T03351001  RH  012%=      5-min Rain = 0
KSM1 181855Z 24011KT 34/M01 A2975 RMK A01 T03381011  RH  011%=      5-min Rain = 0
KSM1 181900Z 24006KT 34/M00 A2975 RMK A01 T03371001  RH  012%=      5-min Rain = 0
KSM1 181905Z 21009G14KT 34/M01 A2975 RMK A01 T03401008  RH  011%=      5-min Rain = 0
KSM1 181910Z 21007G13KT 34/M01 A2975 RMK A01 T03401007  RH  011%=      5-min Rain = 0
KSM1 181915Z 19007G15KT 34/M01 A2975 RMK A01 T03391011  RH  011%=      5-min Rain = 0
KSM1 181920Z 20010G18KT 34/M01 A2974 RMK A01 T03431010  RH  011%=      5-min Rain = 0
KSM1 181925Z 24008G13KT 34/M00 A2974 RMK A01 T03431004  RH  011%=      5-min Rain = 0
KSM1 181930Z 20003G9KT 34/M01 A2974 RMK A01 T03411006  RH  011%=      5-min Rain = 0
KSM1 181935Z 23008G15KT 34/M00 A2974 RMK A01 T03431002  RH  011%=      5-min Rain = 0
KSM1 181940Z 21012G17KT 35/M01 A2973 RMK A01 T03481010  RH  010%=      5-min Rain = 0
KSM1 181945Z 20010G18KT 35/M01 A2973 RMK A01 T03481010  RH  010%=      5-min Rain = 0
KSM1 181950Z 20010KT 35/M01 A2973 RMK A01 T03501008  RH  010%=      5-min Rain = 0
KSM1 181955Z 20012G17KT 35/M01 A2973 RMK A01 T03521009  RH  010%=      5-min Rain = 0
KSM1 182000Z 21012G20KT 35/M02 A2973 RMK A01 T03521017  RH  010%=      5-min Rain = 0
KSM1 182005Z 22012G17KT 35/M03 A2973 RMK A01 T03501026  RH  009%=      5-min Rain = 0
KSM1 182010Z 23007G16KT 35/M04 A2973 RMK A01 T03451038  RH  009%=      5-min Rain = 0
KSM1 182015Z 23012G20KT 35/M04 A2973 RMK A01 T03511039  RH  008%=      5-min Rain = 0
KSM1 182020Z 22010G15KT 35/M05 A2973 RMK A01 T03501047  RH  008%=      5-min Rain = 0
KSM1 182025Z 21009G15KT 35/M05 A2972 RMK A01 T03531053  RH  007%=      5-min Rain = 0
KSM1 182030Z 19012G17KT 36/M05 A2972 RMK A01 T03591051  RH  007%=      5-min Rain = 0
KSM1 182035Z 20015G24KT 36/M06 A2972 RMK A01 T03571059  RH  007%=      5-min Rain = 0
KSM1 182040Z 20012G18KT 36/M07 A2972 RMK A01 T03581067  RH  006%=      5-min Rain = 0
KSM1 182045Z 20013KT 35/M07 A2972 RMK A01 T03531072  RH  006%=      5-min Rain = 0
KSM1 182050Z 23012G19KT 35/M08 A2972 RMK A01 T03521076  RH  006%=      5-min Rain = 0
KSM1 182055Z 22012G18KT 36/M07 A2971 RMK A01 T03571071  RH  006%=      5-min Rain = 0
KSM1 182100Z 22009G15KT 36/M08 A2971 RMK A01 T03551075  RH  006%=      5-min Rain = 0
KSM1 182105Z 23010G19KT 36/M07 A2971 RMK A01 T03561068  RH  006%=      5-min Rain = 0
KSM1 182110Z 21013G19KT 36/M07 A2971 RMK A01 T03581072  RH  006%=      5-min Rain = 0
KSM1 182115Z 21011G18KT 36/M07 A2971 RMK A01 T03571073  RH  006%=      5-min Rain = 0
KSM1 182120Z 20010KT 36/M07 A297 RMK A01 T03581071  RH  006%=      5-min Rain = 0
KSM1 182125Z 21010G15KT 36/M07 A297 RMK A01 T03611069  RH  006%=      5-min Rain = 0
KSM1 182130Z 25013G18KT 36/M08 A297 RMK A01 T03601076  RH  006%=      5-min Rain = 0
KSM1 182135Z 24012G24KT 36/M07 A297 RMK A01 T03601074  RH  006%=      5-min Rain = 0
KSM1 182140Z 22014G21KT 36/M07 A297 RMK A01 T03601073  RH  006%=      5-min Rain = 0
KSM1 182145Z 25013G18KT 36/M08 A297 RMK A01 T03581077  RH  006%=      5-min Rain = 0
KSM1 182150Z 25011KT 36/M08 A2969 RMK A01 T03581079  RH  006%=      5-min Rain = 0
KSM1 182155Z 22010G16KT 36/M08 A2969 RMK A01 T03601077  RH  006%=      5-min Rain = 0
KSM1 182200Z 23015G21KT 36/M08 A2969 RMK A01 T03591080  RH  006%=      5-min Rain = 0
KSM1 182205Z 24011G19KT 36/M08 A2969 RMK A01 T03561082  RH  006%=      5-min Rain = 0
KSM1 182210Z 24011G16KT 36/M08 A2969 RMK A01 T03551083  RH  006%=      5-min Rain = 0
KSM1 182215Z 24010G15KT 36/M08 A2969 RMK A01 T03581083  RH  006%=      5-min Rain = 0
KSM1 182220Z 23012G17KT 36/M09 A2969 RMK A01 T03591085  RH  005%=      5-min Rain = 0
KSM1 182225Z 24011G16KT 36/M09 A2969 RMK A01 T03561091  RH  005%=      5-min Rain = 0
KSM1 182230Z 19014G20KT 36/M09 A2969 RMK A01 T03611085  RH  005%=      5-min Rain = 0
KSM1 182235Z 19016G24KT 36/M09 A2969 RMK A01 T03601091  RH  005%=      5-min Rain = 0
KSM1 182240Z 21013KT 36/M09 A2969 RMK A01 T03581092  RH  005%=      5-min Rain = 0
KSM1 182245Z 23015G20KT 36/M09 A2969 RMK A01 T03581090  RH  005%=      5-min Rain = 0
KSM1 182250Z 23013G21KT 36/M09 A2969 RMK A01 T03581092  RH  005%=      5-min Rain = 0
KSM1 182255Z 23014G20KT 36/M10 A2969 RMK A01 T03561096  RH  005%=      5-min Rain = 0
KSM1 182300Z 20015G20KT 36/M10 A2968 RMK A01 T03571102  RH  005%=      5-min Rain = 0
KSM1 182305Z 20011G18KT 36/M11 A2968 RMK A01 T03571106  RH  005%=      5-min Rain = 0
KSM1 182310Z 20012G19KT 36/M11 A2968 RMK A01 T03571105  RH  005%=      5-min Rain = 0
KSM1 182315Z 21012G19KT 36/M11 A2968 RMK A01 T03571109  RH  005%=      5-min Rain = 0
KSM1 182320Z 22012G17KT 36/M11 A2968 RMK A01 T03591110  RH  004%=      5-min Rain = 0
KSM1 182325Z 21016G23KT 36/M12 A2968 RMK A01 T03581116  RH  004%=      5-min Rain = 0
KSM1 182330Z 24015G22KT 36/M12 A2968 RMK A01 T03561120  RH  004%=      5-min Rain = 0
KSM1 182335Z 21015G23KT 35/M12 A2968 RMK A01 T03541117  RH  004%=      5-min Rain = 0
KSM1 182340Z 23014G20KT 35/M12 A2967 RMK A01 T03531116  RH  004%=      5-min Rain = 0
KSM1 182345Z 21015G22KT 35/M11 A2968 RMK A01 T03541111  RH  005%=      5-min Rain = 0
KSM1 182350Z 21018G25KT 35/M11 A2968 RMK A01 T03521109  RH  005%=      5-min Rain = 0
KSM1 182355Z 22017G22KT 35/M11 A2968 RMK A01 T03501106  RH  005%=      5-min Rain = 0
KSM1 190000Z 21016G29KT 35/M10 A2968 RMK A01 T03491102  RH  005%=      5-min Rain = 0
KSM1 190005Z 21018G25KT 35/M10 A2968 RMK A01 T03481100  RH  005%=      5-min Rain = 0
KSM1 190010Z 22015G22KT 35/M10 A2968 RMK A01 T03461098  RH  005%=      5-min Rain = 0
KSM1 190015Z 22013G21KT 35/M10 A2968 RMK A01 T03451097  RH  005%=      5-min Rain = 0
KSM1 190020Z 21017G25KT 34/M10 A2968 RMK A01 T03431102  RH  005%=      5-min Rain = 0
KSM1 190025Z 22016G22KT 34/M10 A2968 RMK A01 T03421101  RH  005%=      5-min Rain = 0
KSM1 190030Z 22015G23KT 34/M11 A2968 RMK A01 T03401106  RH  005%=      5-min Rain = 0
KSM1 190035Z 22013G20KT 34/M10 A2968 RMK A01 T03381104  RH  005%=      5-min Rain = 0
KSM1 190040Z 22014G22KT 34/M11 A2969 RMK A01 T03371108  RH  005%=      5-min Rain = 0
KSM1 190045Z 23015G22KT 34/M12 A2969 RMK A01 T03351117  RH  005%=      5-min Rain = 0
KSM1 190050Z 23016G23KT 33/M12 A2969 RMK A01 T03341118  RH  005%=      5-min Rain = 0
KSM1 190055Z 24015G20KT 33/M12 A2969 RMK A01 T03331122  RH  005%=      5-min Rain = 0
KSM1 190100Z 23013G19KT 33/M12 A2969 RMK A01 T03321116  RH  005%=      5-min Rain = 0
KSM1 190105Z 22014G20KT 33/M12 A2969 RMK A01 T03291118  RH  005%=      5-min Rain = 0
KSM1 190110Z 23012KT 33/M13 A297 RMK A01 T03271126  RH  005%=      5-min Rain = 0
KSM1 190115Z 23012G18KT 33/M13 A297 RMK A01 T03251133  RH  004%=      5-min Rain = 0
KSM1 190120Z 23012G17KT 32/M14 A297 RMK A01 T03231138  RH  004%=      5-min Rain = 0
KSM1 190125Z 23011G16KT 32/M14 A297 RMK A01 T03211144  RH  004%=      5-min Rain = 0
KSM1 190130Z 23010G15KT 32/M15 A2971 RMK A01 T03181148  RH  004%=      5-min Rain = 0
KSM1 190135Z 23009KT 32/M15 A2971 RMK A01 T03151147  RH  004%=      5-min Rain = 0
KSM1 190140Z 23009G14KT 31/M15 A2971 RMK A01 T03111145  RH  004%=      5-min Rain = 0
KSM1 190145Z 24011KT 31/M14 A2971 RMK A01 T03101144  RH  004%=      5-min Rain = 0
KSM1 190150Z 24012KT 31/M15 A2971 RMK A01 T03081145  RH  004%=      5-min Rain = 0
KSM1 190155Z 24012KT 31/M14 A2972 RMK A01 T03051144  RH  005%=      5-min Rain = 0
KSM1 190200Z 24011KT 30/M14 A2972 RMK A01 T03021142  RH  005%=      5-min Rain = 0
KSM1 190205Z 24011KT 30/M14 A2972 RMK A01 T03001141  RH  005%=      5-min Rain = 0
KSM1 190210Z 24011KT 30/M14 A2972 RMK A01 T02971140  RH  005%=      5-min Rain = 0
KSM1 190215Z 24011KT 30/M14 A2972 RMK A01 T02951138  RH  005%=      5-min Rain = 0
KSM1 190220Z 24011KT 29/M14 A2973 RMK A01 T02941135  RH  005%=      5-min Rain = 0
KSM1 190225Z 24010KT 29/M13 A2973 RMK A01 T02931133  RH  005%=      5-min Rain = 0
KSM1 190230Z 24008KT 29/M13 A2973 RMK A01 T02931131  RH  005%=      5-min Rain = 0
KSM1 190235Z 23007KT 29/M13 A2973 RMK A01 T02921130  RH  006%=      5-min Rain = 0
KSM1 190240Z 24007KT 29/M13 A2974 RMK A01 T02891128  RH  006%=      5-min Rain = 0
KSM1 190245Z 24008KT 29/M13 A2974 RMK A01 T02871129  RH  006%=      5-min Rain = 0
KSM1 190250Z 24007KT 28/M13 A2974 RMK A01 T02831127  RH  006%=      5-min Rain = 0
KSM1 190255Z 23007KT 28/M13 A2974 RMK A01 T02781127  RH  006%=      5-min Rain = 0
KSM1 190300Z 23006KT 27/M13 A2974 RMK A01 T02731125  RH  006%=      5-min Rain = 0
KSM1 190305Z 20008KT 27/M12 A2975 RMK A01 T02671124  RH  007%=      5-min Rain = 0
KSM1 190310Z 17010KT 26/M12 A2976 RMK A01 T02621120  RH  007%=      5-min Rain = 0
KSM1 190315Z 18009KT 26/M12 A2976 RMK A01 T02551117  RH  008%=      5-min Rain = 0
KSM1 190320Z 18011KT 26/M08 A2976 RMK A01 T02591079  RH  010%=      5-min Rain = 0
KSM1 190325Z 17010KT 26/M05 A2976 RMK A01 T02631045  RH  013%=      5-min Rain = 0
KSM1 190330Z 18011KT 27/M02 A2976 RMK A01 T02651020  RH  015%=      5-min Rain = 0
KSM1 190335Z 18012KT 27/M01 A2976 RMK A01 T02651011  RH  016%=      5-min Rain = 0
KSM1 190340Z 17011KT 27/00 A2976 RMK A01 T02690004  RH  018%=      5-min Rain = 0
KSM1 190345Z 16011KT 27/03 A2977 RMK A01 T02670027  RH  022%=      5-min Rain = 0
KSM1 190350Z 18009KT 27/04 A2977 RMK A01 T02650040  RH  024%=      5-min Rain = 0
KSM1 190355Z 18008KT 26/04 A2978 RMK A01 T02620039  RH  024%=      5-min Rain = 0
KSM1 190400Z 19007KT 26/04 A2978 RMK A01 T02580041  RH  025%=      5-min Rain = 0
KSM1 190405Z 19007KT 26/05 A2978 RMK A01 T02550046  RH  026%=      5-min Rain = 0
KSM1 190410Z 20007KT 26/06 A2979 RMK A01 T02550061  RH  030%=      5-min Rain = 0
KSM1 190415Z 21007KT 26/06 A2979 RMK A01 T02550062  RH  030%=      5-min Rain = 0
KSM1 190420Z 20006KT 26/06 A2979 RMK A01 T02560063  RH  030%=      5-min Rain = 0
KSM1 190425Z 20006KT 25/06 A2979 RMK A01 T02530062  RH  030%=      5-min Rain = 0
KSM1 190430Z 20006KT 25/06 A2979 RMK A01 T02490063  RH  031%=      5-min Rain = 0
KSM1 190435Z 19009KT 25/07 A298 RMK A01 T02480068  RH  032%=      5-min Rain = 0
KSM1 190440Z 20010KT 26/08 A298 RMK A01 T02550075  RH  033%=      5-min Rain = 0
KSM1 190445Z 19010KT 26/08 A298 RMK A01 T02580075  RH  032%=      5-min Rain = 0
KSM1 190450Z 19010KT 26/08 A298 RMK A01 T02560075  RH  033%=      5-min Rain = 0
KSM1 190455Z 20009KT 26/08 A298 RMK A01 T02550076  RH  033%=      5-min Rain = 0

Page generated in 0.0098 seconds.